createdAt,value
2018-12-01T00:04:10.025Z,100024.08
2018-12-01T00:09:13.226Z,100012.20
2018-12-01T00:14:16.453Z,100004.26
2018-12-01T00:19:19.653Z,100005.69
2018-12-01T00:24:22.865Z,100004.91
2018-12-01T00:29:26.019Z,100017.74
2018-12-01T00:34:29.266Z,100015.77
2018-12-01T00:39:32.461Z,100006.06
2018-12-01T00:44:35.708Z,100015.84
2018-12-01T00:49:38.887Z,100012.39
2018-12-01T00:54:42.110Z,100017.98
2018-12-01T00:59:45.311Z,100019.31
2018-12-01T01:04:49.321Z,100023.28
2018-12-01T01:09:51.709Z,100033.17
2018-12-01T01:14:54.934Z,100035.58
2018-12-01T01:19:58.141Z,100030.63
2018-12-01T01:25:01.346Z,100029.25
2018-12-01T01:30:10.712Z,100034.19
2018-12-01T01:35:14.106Z,100034.45
2018-12-01T01:40:17.938Z,100034.38
2018-12-01T01:45:21.150Z,100035.98
2018-12-01T01:50:24.357Z,100033.84
2018-12-01T01:55:27.562Z,100032.02
2018-12-01T02:00:30.774Z,100019.99
2018-12-01T02:05:33.977Z,100022.39
2018-12-01T02:10:37.354Z,100026.14
2018-12-01T02:15:40.522Z,100029.74
2018-12-01T02:20:43.718Z,100033.11
2018-12-01T02:25:46.918Z,100034.27
2018-12-01T02:30:50.136Z,100032.09
2018-12-01T02:35:53.335Z,100031.68
2018-12-01T02:40:56.537Z,100030.34
2018-12-01T02:46:11.267Z,100030.89
2018-12-01T02:51:14.426Z,100034.68
2018-12-01T02:56:17.626Z,100033.66
2018-12-01T03:01:20.834Z,100042.58
2018-12-01T03:06:24.041Z,100032.46
2018-12-01T03:11:27.265Z,100039.81
2018-12-01T03:16:30.477Z,100051.13
2018-12-01T03:21:33.685Z,100063.55
2018-12-01T03:26:36.873Z,100064.48
2018-12-01T03:31:40.087Z,100062.31
2018-12-01T03:36:43.305Z,100064.33
2018-12-01T03:41:46.517Z,100074.03
2018-12-01T03:46:49.730Z,100069.09
2018-12-01T03:51:52.925Z,100068.48
2018-12-01T03:56:56.134Z,100070.29
2018-12-01T04:01:59.349Z,100072.46
2018-12-01T04:07:02.555Z,100082.50
2018-12-01T04:12:06.062Z,100077.14
2018-12-01T04:17:09.280Z,100078.91
2018-12-01T04:22:13.801Z,100073.47
2018-12-01T04:27:18.611Z,100077.81
2018-12-01T04:32:21.774Z,100082.15
2018-12-01T04:37:24.982Z,100077.63
2018-12-01T04:42:28.192Z,100073.72
2018-12-01T04:47:31.398Z,100080.05
2018-12-01T04:52:34.613Z,100074.55
2018-12-01T04:57:37.824Z,100081.30
2018-12-01T05:02:41.025Z,100075.23
2018-12-01T05:07:44.237Z,100076.80
2018-12-01T05:12:47.438Z,100087.70
2018-12-01T05:17:50.642Z,100087.33
2018-12-01T05:22:54.154Z,100090.52
2018-12-01T05:27:57.378Z,100100.47
2018-12-01T05:33:00.582Z,100103.84
2018-12-01T05:38:03.786Z,100104.45
2018-12-01T05:43:07.005Z,100112.20
2018-12-01T05:48:10.198Z,100117.55
2018-12-01T05:53:13.405Z,100110.44
2018-12-01T05:58:16.609Z,100124.48
2018-12-01T06:03:19.842Z,100120.73
2018-12-01T06:08:23.041Z,100124.55
2018-12-01T06:13:26.254Z,100128.11
2018-12-01T06:18:29.453Z,100131.29
2018-12-01T06:23:32.621Z,100133.88
2018-12-01T06:28:35.882Z,100144.77
2018-12-01T06:33:39.077Z,100147.16
2018-12-01T06:38:42.286Z,100146.75
2018-12-01T06:43:45.499Z,100153.30
2018-12-01T06:48:48.673Z,100152.95
2018-12-01T06:53:51.823Z,100149.22
2018-12-01T06:58:55.017Z,100143.68
2018-12-01T07:03:58.225Z,100152.40
2018-12-01T07:09:01.444Z,100152.40
2018-12-01T07:14:05.182Z,100155.95
2018-12-01T07:19:22.909Z,100156.36
2018-12-01T07:24:26.118Z,100159.39
2018-12-01T07:29:29.317Z,100161.72
2018-12-01T07:34:32.539Z,100167.70
2018-12-01T07:39:35.748Z,100173.46
2018-12-01T07:44:38.957Z,100177.43
2018-12-01T07:49:42.162Z,100182.25
2018-12-01T07:54:45.365Z,100171.91
2018-12-01T07:59:48.587Z,100178.61
2018-12-01T08:04:51.818Z,100183.19
2018-12-01T08:09:55.065Z,100181.23
2018-12-01T08:14:58.569Z,100177.40
2018-12-01T08:20:01.838Z,100180.73
2018-12-01T08:25:08.009Z,100188.60
2018-12-01T08:30:13.233Z,100188.98
2018-12-01T08:35:16.466Z,100180.39
2018-12-01T08:40:21.114Z,100189.08
2018-12-01T08:45:24.337Z,100180.95
2018-12-01T08:50:27.526Z,100182.53
2018-12-01T08:55:30.730Z,100173.97
2018-12-01T09:00:39.741Z,100176.33
2018-12-01T09:05:42.893Z,100183.98
2018-12-01T09:10:46.102Z,100178.09
2018-12-01T09:15:49.265Z,100190.12
2018-12-01T09:20:52.430Z,100191.09
2018-12-01T09:25:55.622Z,100183.37
2018-12-01T09:30:58.837Z,100190.91
2018-12-01T09:36:02.039Z,100189.70
2018-12-01T09:41:05.358Z,100180.98
2018-12-01T09:46:08.553Z,100178.22
2018-12-01T09:51:11.779Z,100176.23
2018-12-01T09:56:14.991Z,100167.33
2018-12-01T10:01:18.192Z,100162.00
2018-12-01T10:06:21.402Z,100165.75
2018-12-01T10:11:24.554Z,100165.16
2018-12-01T10:16:27.805Z,100162.76
2018-12-01T10:21:30.958Z,100170.30
2018-12-01T10:26:34.126Z,100161.09
2018-12-01T10:31:37.341Z,100163.58
2018-12-01T10:36:40.550Z,100153.47
2018-12-01T10:41:43.757Z,100151.73
2018-12-01T10:46:46.958Z,100153.88
2018-12-01T10:51:50.267Z,100154.25
2018-12-01T10:56:53.494Z,100143.77
2018-12-01T11:02:02.142Z,100128.90
2018-12-01T11:07:05.916Z,100130.59
2018-12-01T11:12:09.146Z,100121.44
2018-12-01T11:17:13.362Z,100123.95
2018-12-01T11:22:16.612Z,100126.27
2018-12-01T11:27:19.795Z,100126.80
2018-12-01T11:32:23.446Z,100123.23
2018-12-01T11:37:26.946Z,100132.70
2018-12-01T11:42:30.142Z,100129.34
2018-12-01T11:47:33.362Z,100119.59
2018-12-01T11:52:36.531Z,100123.11
2018-12-01T11:57:40.823Z,100123.75
2018-12-01T12:02:44.252Z,100131.69
2018-12-01T12:07:58.922Z,100122.52
2018-12-01T12:13:03.146Z,100121.39
2018-12-01T12:18:06.484Z,100125.73
2018-12-01T12:23:09.754Z,100121.92
2018-12-01T12:28:12.942Z,100120.34
2018-12-01T12:33:16.180Z,100116.55
2018-12-01T12:38:19.367Z,100114.05
2018-12-01T12:43:22.826Z,100122.03
2018-12-01T12:48:26.003Z,100120.05
2018-12-01T12:53:29.196Z,100115.89
2018-12-01T12:58:32.390Z,100112.52
2018-12-01T13:03:35.599Z,100105.54
2018-12-01T13:08:38.762Z,100108.66
2018-12-01T13:13:41.923Z,100121.58
2018-12-01T13:18:45.122Z,100115.25
2018-12-01T13:23:48.758Z,100104.34
2018-12-01T13:28:51.992Z,100101.13
2018-12-01T13:33:55.386Z,100094.80
2018-12-01T13:38:58.586Z,100088.65
2018-12-01T13:44:01.797Z,100080.15
2018-12-01T13:49:05.113Z,100076.17
2018-12-01T13:54:08.427Z,100081.11
2018-12-01T13:59:11.733Z,100094.27
2018-12-01T14:04:14.938Z,100091.50
2018-12-01T14:09:18.666Z,100099.81
2018-12-01T14:14:22.842Z,100098.06
2018-12-01T14:19:26.420Z,100102.63
2018-12-01T14:24:29.577Z,100097.50
2018-12-01T14:29:32.824Z,100110.42
2018-12-01T14:34:36.031Z,100116.38
2018-12-01T14:39:39.231Z,100110.66
2018-12-01T14:44:42.437Z,100102.94
2018-12-01T14:49:45.647Z,100107.65
2018-12-01T14:54:49.476Z,100098.36
2018-12-01T14:59:54.314Z,100105.71
2018-12-01T15:04:57.522Z,100108.66
2018-12-01T15:10:00.736Z,100110.84
2018-12-01T15:15:04.241Z,100118.55
2018-12-01T15:20:16.454Z,100127.84
2018-12-01T15:25:21.731Z,100130.02
2018-12-01T15:30:26.913Z,100125.48
2018-12-01T15:35:30.118Z,100123.42
2018-12-01T15:40:33.299Z,100125.59
2018-12-01T15:45:36.641Z,100117.83
2018-12-01T15:50:39.939Z,100116.27
2018-12-01T15:55:43.311Z,100111.50
2018-12-01T16:00:46.707Z,100112.11
2018-12-01T16:05:49.977Z,100114.27
2018-12-01T16:10:53.190Z,100110.30
2018-12-01T16:16:01.104Z,100109.52
2018-12-01T16:21:04.365Z,100101.20
2018-12-01T16:26:07.626Z,100110.48
2018-12-01T16:31:10.798Z,100111.87
2018-12-01T16:36:14.050Z,100108.50
2018-12-01T16:41:22.170Z,100119.45
2018-12-01T16:46:25.335Z,100112.03
2018-12-01T16:51:28.586Z,100116.45
2018-12-01T16:56:31.786Z,100103.19
2018-12-01T17:01:34.982Z,100107.76
2018-12-01T17:06:38.215Z,100094.58
2018-12-01T17:11:41.430Z,100091.80
2018-12-01T17:16:44.622Z,100087.80
2018-12-01T17:21:47.828Z,100076.61
2018-12-01T17:26:51.041Z,100076.98
2018-12-01T17:31:54.233Z,100068.04
2018-12-01T17:36:57.421Z,100063.00
2018-12-01T17:42:01.878Z,100056.53
2018-12-01T17:47:05.302Z,100051.95
2018-12-01T17:52:08.494Z,100046.36
2018-12-01T17:57:11.714Z,100046.70
2018-12-01T18:02:14.910Z,100038.56
2018-12-01T18:07:18.122Z,100019.33
2018-12-01T18:12:21.326Z,100015.81
2018-12-01T18:17:24.545Z,100000.70
2018-12-01T18:22:27.755Z,99997.19
2018-12-01T18:27:30.954Z,99982.50
2018-12-01T18:32:34.158Z,99976.56
2018-12-01T18:37:38.034Z,99980.56
2018-12-01T18:42:41.213Z,99974.17
2018-12-01T18:47:44.721Z,99978.33
2018-12-01T18:52:52.793Z,99977.19
2018-12-01T18:57:56.014Z,99971.64
2018-12-01T19:02:59.270Z,99965.39
2018-12-01T19:08:02.738Z,99948.99
2018-12-01T19:13:06.978Z,99948.13
2018-12-01T19:18:10.313Z,99961.37
2018-12-01T19:23:14.759Z,99963.59
2018-12-01T19:28:17.962Z,99956.58
2018-12-01T19:33:22.541Z,99955.61
2018-12-01T19:38:28.271Z,99961.22
2018-12-01T19:43:31.478Z,99963.57
2018-12-01T19:48:35.566Z,99957.84
2018-12-01T19:53:38.734Z,99954.47
2018-12-01T19:58:41.921Z,99955.19
2018-12-01T20:03:45.149Z,99942.88
2018-12-01T20:08:48.335Z,99932.21
2018-12-01T20:13:51.559Z,99927.69
2018-12-01T20:18:54.973Z,99923.77
2018-12-01T20:23:58.144Z,99921.70
2018-12-01T20:29:01.897Z,99921.16
2018-12-01T20:34:05.235Z,99919.44
2018-12-01T20:39:12.813Z,99918.89
2018-12-01T20:44:16.030Z,99915.16
2018-12-01T20:49:19.217Z,99910.91
2018-12-01T20:54:33.586Z,99909.77
2018-12-01T20:59:36.797Z,99898.94
2018-12-01T21:04:40.006Z,99892.16
2018-12-01T21:09:43.224Z,99878.90
2018-12-01T21:14:46.457Z,99870.67
2018-12-01T21:19:49.629Z,99866.42
2018-12-01T21:24:52.844Z,99865.66
2018-12-01T21:29:56.042Z,99851.98
2018-12-01T21:34:59.258Z,99860.30
2018-12-01T21:40:02.422Z,99852.34
2018-12-01T21:45:07.859Z,99853.97
2018-12-01T21:50:12.477Z,99850.14
2018-12-01T21:55:15.687Z,99841.32
2018-12-01T22:00:23.050Z,99835.84
2018-12-01T22:05:38.122Z,99819.90
2018-12-01T22:10:41.430Z,99826.08
2018-12-01T22:15:44.596Z,99814.66
2018-12-01T22:20:47.803Z,99810.56
2018-12-01T22:25:51.001Z,99797.73
2018-12-01T22:30:54.225Z,99799.55
2018-12-01T22:35:57.430Z,99806.05
2018-12-01T22:41:00.626Z,99793.33
2018-12-01T22:46:03.849Z,99788.57
2018-12-01T22:51:07.160Z,99781.39
2018-12-01T22:56:10.381Z,99775.22
2018-12-01T23:01:14.169Z,99773.93
2018-12-01T23:06:17.402Z,99768.75
2018-12-01T23:11:20.609Z,99764.41
2018-12-01T23:16:23.812Z,99752.11
2018-12-01T23:21:27.025Z,99748.98
2018-12-01T23:26:31.565Z,99763.63
2018-12-01T23:31:34.771Z,99748.98
2018-12-01T23:36:37.981Z,99729.22
2018-12-01T23:41:42.237Z,99717.11
2018-12-01T23:46:45.401Z,99703.85
2018-12-01T23:51:48.567Z,99697.52
2018-12-01T23:56:51.752Z,99689.39
